Pittsburg, TX

8:24 PM CST on January 17, 2017 (GMT -0600)
Mount Pleasant

Weather History for KOSA - December, 2013

Change the Weather History Date:

Wednesday, December 4, 2013

  Actual Average (KGGG) Record (KGGG)
Temperature  
Mean Temperature 65 °F -  
Max Temperature 79 °F 59 °F 83 °F (1995)
Min Temperature 51 °F 39 °F 22 °F (2006)
Growing Degree Days 15 (Base 50)    
Moisture  
Dew Point 57 °F    
Average Humidity 78    
Maximum Humidity 100    
Minimum Humidity 47    
Precipitation  
Precipitation 0.00 in - - ()
Sea Level Pressure  
Sea Level Pressure 29.72 in    
Wind  
Wind Speed 6 mph (South)    
Max Wind Speed 16 mph    
Max Gust Speed 22 mph    
Visibility 8 miles    
Events      
Averages and records for this station are not official NWS values.
T = Trace of Precipitation, MM = Missing Value Source: NWS Daily Summary

Daily Weather History Graph

Daily Weather History Graph

Search for Another Location

Airport or City:

Trip Planner

Search our weather history database for the weather conditions in past years. The results will help you decide how hot, cold, wet, or windy it might be!

Date:

Astronomy

Dec. 04, 2013 Rise Set
Actual Time 7:07 AM CST 5:12 PM CST
Civil Twilight 6:40 AM CST 5:39 PM CST
Nautical Twilight 6:09 AM CST 6:10 PM CST
Astronomical Twilight 5:39 AM CST 6:40 PM CST
Moon 8:38 AM CST (12/4) 7:21 PM CST (12/4)
Length of Visible Light 10h 59m
Length of Day
10h 04m
Waxing Crescent, 4% of the Moon is Illuminated
Dec 4
Waxing Crescent
Dec 9
First Quarter
Dec 17
Full
Dec 25
Last Quarter
Jan 1
New

Hourly Weather History & Observations

Time (CST) Temp. Dew Point Humidity Pressure Visibility Wind Dir Wind Speed Gust Speed Precip Events Conditions
12:15 AM 51.8 °F 50.0 °F 94% 29.64 in 10.0 mi Calm Calm - N/A   Clear
12:35 AM 52.7 °F 50.7 °F 93% 29.64 in 10.0 mi Calm Calm - N/A   Clear
12:55 AM 53.1 °F 51.8 °F 95% 29.64 in 10.0 mi SE 3.5 mph - N/A   Clear
1:15 AM 53.6 °F 52.7 °F 97% 29.63 in 10.0 mi SSE 3.5 mph - N/A   Clear
1:35 AM 54.5 °F 53.8 °F 97% 29.64 in 7.0 mi Calm Calm - N/A   Clear
1:55 AM 56.5 °F 55.6 °F 97% 29.64 in 10.0 mi SSE 4.6 mph - N/A   Clear
2:15 AM 56.1 °F 55.6 °F 98% 29.64 in 7.0 mi South 4.6 mph - N/A   Clear
2:35 AM 58.3 °F 57.6 °F 97% 29.64 in 7.0 mi South 3.5 mph - N/A   Clear
2:55 AM 58.3 °F 57.4 °F 97% 29.64 in 7.0 mi South 5.8 mph - N/A   Clear
3:15 AM 58.1 °F 57.6 °F 98% 29.64 in 7.0 mi South 5.8 mph - N/A   Clear
3:35 AM 58.3 °F 57.7 °F 98% 29.65 in 7.0 mi South 5.8 mph - N/A   Clear
3:55 AM 58.3 °F 57.7 °F 98% 29.64 in 7.0 mi SSE 5.8 mph - N/A   Clear
4:15 AM 58.6 °F 58.1 °F 98% 29.65 in 7.0 mi South 6.9 mph - N/A   Clear
4:35 AM 58.3 °F 57.7 °F 98% 29.66 in 5.0 mi South 5.8 mph - N/A   Clear
4:55 AM 58.6 °F 58.3 °F 99% 29.66 in 5.0 mi SSE 6.9 mph - N/A   Clear
5:15 AM 59.0 °F 58.5 °F 98% 29.66 in 5.0 mi South 8.1 mph - N/A   Clear
5:35 AM 59.0 °F 58.6 °F 99% 29.67 in 5.0 mi South 6.9 mph - N/A   Clear
5:55 AM 58.8 °F 58.5 °F 99% 29.67 in 4.0 mi South 5.8 mph - N/A   Clear
6:15 AM 58.1 °F 57.9 °F 99% 29.68 in 3.0 mi SSE 5.8 mph - N/A   Clear
6:35 AM 58.1 °F 57.9 °F 99% 29.69 in 3.0 mi SSE 6.9 mph - N/A   Clear
6:55 AM 57.9 °F 57.7 °F 99% 29.69 in 2.5 mi SSE 5.8 mph - N/A   Clear
7:15 AM 58.1 °F 57.9 °F 99% 29.71 in 2.5 mi South 5.8 mph - N/A   Scattered Clouds
7:35 AM 58.1 °F 58.1 °F 100% 29.71 in 1.8 mi South 8.1 mph - N/A   Scattered Clouds
7:55 AM 59.9 °F 59.9 °F 100% 29.72 in 2.5 mi South 6.9 mph - N/A   Mostly Cloudy
8:15 AM 61.0 °F 60.8 °F 99% 29.73 in 3.0 mi South 5.8 mph - N/A   Overcast
8:35 AM 62.2 °F 61.7 °F 98% 29.73 in 4.0 mi South 8.1 mph - N/A   Mostly Cloudy
8:55 AM 63.3 °F 62.1 °F 96% 29.74 in 5.0 mi South 10.4 mph - N/A   Mostly Cloudy
9:15 AM 64.6 °F 62.8 °F 94% 29.75 in 5.0 mi South 8.1 mph - N/A   Scattered Clouds
9:35 AM 65.7 °F 63.0 °F 91% 29.75 in 7.0 mi South 10.4 mph - N/A   Scattered Clouds
9:55 AM 66.7 °F 63.5 °F 89% 29.76 in 7.0 mi South 13.8 mph 18.4 mph N/A   Scattered Clouds
10:15 AM 67.3 °F 63.3 °F 87% 29.76 in 7.0 mi South 15.0 mph 21.9 mph N/A   Scattered Clouds
10:35 AM 68.9 °F 63.3 °F 82% 29.75 in 10.0 mi South 16.1 mph - N/A   Clear
10:55 AM 70.2 °F 63.5 °F 79% 29.75 in 10.0 mi South 15.0 mph 21.9 mph N/A   Clear
11:15 AM 71.8 °F 63.3 °F 75% 29.74 in 10.0 mi South 12.7 mph 19.6 mph N/A   Clear
11:35 AM 73.0 °F 63.3 °F 71% 29.74 in 10.0 mi SSW 11.5 mph 17.3 mph N/A   Clear
11:55 AM 74.1 °F 61.9 °F 65% 29.73 in 10.0 mi SSW 12.7 mph - N/A   Clear
12:15 PM 75.2 °F 61.2 °F 62% 29.72 in 10.0 mi South 11.5 mph - N/A   Clear
12:35 PM 75.7 °F 60.8 °F 60% 29.71 in 10.0 mi South 9.2 mph - N/A   Clear
12:55 PM 77.2 °F 60.4 °F 56% 29.71 in 10.0 mi SSW 9.2 mph - N/A   Clear
1:15 PM 77.5 °F 59.9 °F 54% 29.70 in 10.0 mi South 12.7 mph - N/A   Clear
1:35 PM 78.4 °F 60.1 °F 53% 29.70 in 10.0 mi SSW 12.7 mph - N/A   Clear
1:55 PM 79.0 °F 59.5 °F 51% 29.69 in 10.0 mi South 9.2 mph - N/A   Clear
2:15 PM 79.2 °F 58.5 °F 49% 29.69 in 10.0 mi SW 6.9 mph 10.4 mph N/A   Clear
2:35 PM 79.5 °F 58.3 °F 48% 29.69 in 10.0 mi South 9.2 mph - N/A   Clear
2:55 PM 79.9 °F 58.3 °F 48% 29.68 in 10.0 mi South 10.4 mph - N/A   Clear
3:15 PM 79.9 °F 58.6 °F 48% 29.69 in 10.0 mi South 6.9 mph - N/A   Clear
3:35 PM 79.7 °F 57.7 °F 47% 29.69 in 10.0 mi SSW 8.1 mph - N/A   Clear
3:55 PM 79.0 °F 58.3 °F 49% 29.69 in 10.0 mi SSE 6.9 mph - N/A   Clear
4:15 PM 78.3 °F 58.3 °F 50% 29.69 in 10.0 mi SSE 5.8 mph - N/A   Clear
4:35 PM 76.1 °F 58.3 °F 54% 29.70 in 10.0 mi South 9.2 mph - N/A   Clear
4:55 PM 74.5 °F 58.3 °F 57% 29.71 in 10.0 mi SSE 6.9 mph - N/A   Clear
5:15 PM 72.9 °F 58.1 °F 60% 29.72 in 10.0 mi South 5.8 mph - N/A   Clear
5:35 PM 71.8 °F 58.3 °F 62% 29.74 in 10.0 mi South 5.8 mph - N/A   Clear
5:55 PM 71.4 °F 58.3 °F 63% 29.74 in 10.0 mi South 5.8 mph - N/A   Clear
6:15 PM 70.2 °F 58.6 °F 67% 29.74 in 10.0 mi South 5.8 mph - N/A   Clear
6:35 PM 70.2 °F 58.6 °F 67% 29.75 in 10.0 mi South 4.6 mph - N/A   Clear
6:55 PM 70.0 °F 59.0 °F 68% 29.75 in 10.0 mi South 4.6 mph - N/A   Clear
7:15 PM 68.0 °F 59.0 °F 73% 29.75 in 10.0 mi South 3.5 mph - N/A   Clear
7:35 PM 68.4 °F 59.0 °F 72% 29.76 in 10.0 mi Calm Calm - N/A   Clear
7:55 PM 68.4 °F 59.0 °F 72% 29.77 in 10.0 mi Calm Calm - N/A   Mostly Cloudy
8:15 PM 66.6 °F 59.0 °F 77% 29.78 in 10.0 mi Calm Calm - N/A   Overcast
8:35 PM 66.4 °F 59.0 °F 77% 29.79 in 10.0 mi Calm Calm - N/A   Overcast
8:55 PM 66.4 °F 57.0 °F 72% 29.79 in 10.0 mi NW 8.1 mph - N/A   Overcast
9:15 PM 64.0 °F 53.8 °F 69% 29.80 in 10.0 mi NNW 4.6 mph - N/A   Mostly Cloudy
9:35 PM 64.4 °F 50.9 °F 62% 29.80 in 10.0 mi NNW 4.6 mph - N/A   Scattered Clouds
9:55 PM 61.7 °F 48.7 °F 62% 29.82 in 10.0 mi WNW 8.1 mph - N/A   Scattered Clouds
10:15 PM 59.4 °F 47.5 °F 65% 29.83 in 10.0 mi NW 10.4 mph - N/A   Scattered Clouds
10:35 PM 58.1 °F 46.6 °F 65% 29.84 in 10.0 mi NW 9.2 mph - N/A   Scattered Clouds
10:55 PM 56.8 °F 45.9 °F 67% 29.84 in 10.0 mi NW 8.1 mph - N/A   Mostly Cloudy
11:15 PM 56.1 °F 45.5 °F 68% 29.85 in 10.0 mi NW 6.9 mph - N/A   Mostly Cloudy
11:35 PM 55.4 °F 45.3 °F 69% 29.86 in 10.0 mi NW 8.1 mph - N/A   Mostly Cloudy
11:55 PM 54.7 °F 44.2 °F 68% 29.86 in 10.0 mi NW 9.2 mph 17.3 mph N/A   Mostly Cloudy